createdAt,value
2024-05-09T00:00:43.481Z,102611.69
2024-05-09T00:03:11.978Z,102608.16
2024-05-09T00:05:45.722Z,102603.78
2024-05-09T00:08:13.059Z,102597.63
2024-05-09T00:10:41.183Z,102594.97
2024-05-09T00:13:10.903Z,102527.38
2024-05-09T00:15:38.868Z,102589.69
2024-05-09T00:18:07.703Z,102590.59
2024-05-09T00:20:39.143Z,102587.94
2024-05-09T00:23:11.589Z,102583.56
2024-05-09T00:25:39.981Z,102584.41
2024-05-09T00:28:07.243Z,102576.50
2024-05-09T00:30:36.665Z,102564.19
2024-05-09T00:33:07.159Z,102563.31
2024-05-09T00:35:35.889Z,102545.75
2024-05-09T00:38:23.258Z,102548.38
2024-05-09T00:41:10.524Z,102554.53
2024-05-09T00:43:57.777Z,102554.53
2024-05-09T00:46:45.970Z,102551.03
2024-05-09T00:49:33.500Z,102544.00
2024-05-09T00:52:01.513Z,102536.94
2024-05-09T00:54:29.584Z,102529.06
2024-05-09T00:56:56.971Z,102530.84
2024-05-09T00:59:25.003Z,102528.19
2024-05-09T01:01:52.515Z,102524.66
2024-05-09T01:04:20.052Z,102523.78
2024-05-09T01:06:48.036Z,102527.31
2024-05-09T01:09:15.389Z,102524.69
2024-05-09T01:11:42.631Z,102529.94
2024-05-09T01:14:10.095Z,102528.19
2024-05-09T01:16:37.582Z,102524.66
2024-05-09T01:19:29.753Z,102529.06
2024-05-09T01:22:16.983Z,102521.16
2024-05-09T01:25:04.129Z,102525.56
2024-05-09T01:27:51.991Z,102511.47
2024-05-09T01:30:39.259Z,102503.59
2024-05-09T01:33:26.929Z,102503.59
2024-05-09T01:36:14.366Z,102505.34
2024-05-09T01:39:01.485Z,102501.84
2024-05-09T01:41:48.600Z,102489.53
2024-05-09T01:44:35.687Z,102494.78
2024-05-09T01:47:23.060Z,102493.06
2024-05-09T01:49:50.453Z,102480.75
2024-05-09T01:52:17.614Z,102490.41
2024-05-09T01:54:44.735Z,102470.19
2024-05-09T01:57:11.949Z,102457.03
2024-05-09T01:59:39.123Z,102483.38
2024-05-09T02:02:06.467Z,102486.00
2024-05-09T02:04:34.112Z,102470.19
2024-05-09T02:07:01.496Z,102464.91
2024-05-09T02:09:28.711Z,102471.06
2024-05-09T02:11:55.944Z,102467.56
2024-05-09T02:14:23.347Z,102470.19
2024-05-09T02:16:50.545Z,102463.19
2024-05-09T02:19:18.037Z,102452.63
2024-05-09T02:21:45.343Z,102451.75
2024-05-09T02:24:12.470Z,102449.09
2024-05-09T02:26:39.681Z,102437.72
2024-05-09T02:29:07.049Z,102441.22
2024-05-09T02:31:34.169Z,102436.81
2024-05-09T02:34:01.785Z,102435.94
2024-05-09T02:36:29.096Z,102423.63
2024-05-09T02:38:56.274Z,102416.63
2024-05-09T02:41:23.523Z,102414.84
2024-05-09T02:43:50.734Z,102421.88
2024-05-09T02:46:17.928Z,102416.63
2024-05-09T02:49:05.212Z,102377.97
2024-05-09T02:51:32.554Z,102412.19
2024-05-09T02:53:59.943Z,102398.16
2024-05-09T02:56:27.087Z,102405.19
2024-05-09T02:58:54.288Z,102412.19
2024-05-09T03:01:21.560Z,102416.59
2024-05-09T03:03:50.566Z,102412.19
2024-05-09T03:06:18.210Z,102410.44
2024-05-09T03:08:46.783Z,102352.56
2024-05-09T03:11:23.925Z,102325.34
2024-05-09T03:13:55.131Z,102401.63
2024-05-09T03:16:22.384Z,102397.25
2024-05-09T03:19:09.628Z,102397.25
2024-05-09T03:22:00.189Z,102381.47
2024-05-09T03:24:47.267Z,102347.25
2024-05-09T03:27:34.411Z,102388.44
2024-05-09T03:30:29.645Z,102387.59
2024-05-09T03:33:24.048Z,102393.75
2024-05-09T03:36:11.588Z,102392.00
2024-05-09T03:38:58.964Z,102391.09
2024-05-09T03:41:46.049Z,102377.09
2024-05-09T03:44:33.197Z,102379.72
2024-05-09T03:47:20.469Z,102376.22
2024-05-09T03:50:14.931Z,102376.19
2024-05-09T03:53:05.291Z,102366.56
2024-05-09T03:55:52.679Z,102367.41
2024-05-09T03:58:39.959Z,102363.00
2024-05-09T04:01:27.194Z,102364.75
2024-05-09T04:04:14.340Z,102356.00
2024-05-09T04:07:01.486Z,102358.63
2024-05-09T04:09:48.649Z,102335.81
2024-05-09T04:12:35.802Z,102349.84
2024-05-09T04:15:23.367Z,102347.19
2024-05-09T04:18:10.672Z,102345.47
2024-05-09T04:20:40.485Z,102338.38
2024-05-09T04:23:13.698Z,102336.63
2024-05-09T04:25:43.453Z,102332.25
2024-05-09T04:28:10.959Z,102327.81
2024-05-09T04:30:40.805Z,102314.63
2024-05-09T04:33:12.061Z,102273.44
2024-05-09T04:35:44.696Z,102322.47
2024-05-09T04:38:13.786Z,102281.31
2024-05-09T04:40:41.762Z,102241.84
2024-05-09T04:43:15.918Z,102311.91
2024-05-09T04:45:43.390Z,102320.66
2024-05-09T04:48:11.051Z,102301.38
2024-05-09T04:50:39.682Z,102311.84
2024-05-09T04:53:09.545Z,102307.41
2024-05-09T04:55:38.260Z,102306.56
2024-05-09T04:58:08.947Z,102264.47
2024-05-09T05:00:38.882Z,102292.47
2024-05-09T05:03:29.237Z,102302.06
2024-05-09T05:06:16.475Z,102296.81
2024-05-09T05:09:03.758Z,102291.50
2024-05-09T05:11:50.919Z,102294.94
2024-05-09T05:14:38.203Z,102295.78
2024-05-09T05:17:25.510Z,102299.28
2024-05-09T05:20:17.768Z,102292.22
2024-05-09T05:23:08.446Z,102291.34
2024-05-09T05:25:55.983Z,102289.53
2024-05-09T05:28:43.401Z,102269.34
2024-05-09T05:31:30.716Z,102278.03
2024-05-09T05:34:17.764Z,102271.88
2024-05-09T05:37:04.883Z,102275.38
2024-05-09T05:39:51.987Z,102277.09
2024-05-09T05:42:39.130Z,102267.41
2024-05-09T05:45:28.069Z,102260.38
2024-05-09T05:48:15.225Z,102252.44
2024-05-09T05:50:43.408Z,102245.34
2024-05-09T05:53:10.928Z,102256.78
2024-05-09T05:55:40.014Z,102250.59
2024-05-09T05:58:11.910Z,102247.94
2024-05-09T06:00:41.743Z,102238.22
2024-05-09T06:03:10.651Z,102239.94
2024-05-09T06:05:44.113Z,102230.25
2024-05-09T06:08:12.523Z,102160.19
2024-05-09T06:10:41.335Z,102225.81
2024-05-09T06:13:12.912Z,102166.28
2024-05-09T06:15:41.194Z,102224.91
2024-05-09T06:18:10.729Z,102223.13
2024-05-09T06:20:44.160Z,102225.75
2024-05-09T06:23:12.861Z,102192.41
2024-05-09T06:25:40.802Z,102201.06
2024-05-09T06:28:07.948Z,102217.75
2024-05-09T06:30:40.439Z,102211.53
2024-05-09T06:33:12.276Z,102201.84
2024-05-09T06:35:41.596Z,102202.72
2024-05-09T06:38:09.710Z,102193.88
2024-05-09T06:40:41.467Z,102183.34
2024-05-09T06:43:15.560Z,102179.75
2024-05-09T06:48:13.388Z,102177.00
2024-05-09T06:50:41.290Z,102173.50
2024-05-09T06:53:09.360Z,102152.56
2024-05-09T06:55:37.623Z,102173.47
2024-05-09T06:58:09.411Z,102167.28
2024-05-09T07:00:39.847Z,102170.78
2024-05-09T07:03:15.542Z,102078.03
2024-05-09T07:05:45.552Z,102161.03
2024-05-09T07:08:13.550Z,102159.25
2024-05-09T07:10:40.903Z,102161.03
2024-05-09T07:13:12.355Z,102157.50
2024-05-09T07:15:41.152Z,102155.72
2024-05-09T07:18:13.040Z,102146.06
2024-05-09T07:20:41.000Z,102159.22
2024-05-09T07:23:12.691Z,102141.59
2024-05-09T07:25:41.358Z,102143.31
2024-05-09T07:28:16.496Z,102151.22
2024-05-09T07:30:44.716Z,102143.25
2024-05-09T07:33:19.909Z,102145.91
2024-05-09T07:35:48.869Z,102137.13
2024-05-09T07:38:16.248Z,102119.63
2024-05-09T07:40:43.541Z,102136.25
2024-05-09T07:43:14.769Z,102123.06
2024-05-09T07:45:51.246Z,102081.22
2024-05-09T07:52:37.194Z,102116.84
2024-05-09T07:53:47.891Z,102098.34
2024-05-09T07:56:19.888Z,102100.97
2024-05-09T07:58:50.800Z,102087.84
2024-05-09T08:01:18.316Z,102099.19
2024-05-09T08:03:45.849Z,102104.50
2024-05-09T08:06:13.677Z,102084.38
2024-05-09T08:08:40.969Z,102096.59
2024-05-09T08:11:28.367Z,102101.81
2024-05-09T08:14:15.478Z,102086.97
2024-05-09T08:17:02.729Z,102086.91
2024-05-09T08:19:50.017Z,102075.44
2024-05-09T08:22:37.272Z,102071.94
2024-05-09T08:25:24.843Z,102063.06
2024-05-09T08:28:12.259Z,102074.47
2024-05-09T08:31:01.633Z,102068.38
2024-05-09T08:33:50.482Z,102067.41
2024-05-09T08:36:37.796Z,102065.69
2024-05-09T08:39:24.864Z,102043.84
2024-05-09T08:42:12.128Z,102014.22
2024-05-09T08:44:59.398Z,102054.34
2024-05-09T08:47:48.659Z,102051.69
2024-05-09T08:50:39.510Z,102053.44
2024-05-09T08:53:27.872Z,102054.31
2024-05-09T08:56:16.652Z,102046.44
2024-05-09T08:59:04.767Z,102049.09
2024-05-09T09:01:53.889Z,102044.66
2024-05-09T09:04:43.731Z,102044.66
2024-05-09T09:07:31.363Z,101979.16
2024-05-09T09:10:29.025Z,102021.88
2024-05-09T09:13:21.958Z,102036.75
2024-05-09T09:16:10.316Z,102043.72
2024-05-09T09:18:57.871Z,102039.28
2024-05-09T09:21:45.284Z,102034.88
2024-05-09T09:24:32.375Z,102021.72
2024-05-09T09:27:19.504Z,102018.19
2024-05-09T09:30:13.199Z,102007.66
2024-05-09T09:33:09.966Z,102018.16
2024-05-09T09:35:59.934Z,102010.22
2024-05-09T09:38:50.959Z,102012.03
2024-05-09T09:41:44.376Z,101997.97
2024-05-09T09:44:31.707Z,101995.31
2024-05-09T09:47:21.737Z,101995.38
2024-05-09T09:50:14.491Z,101908.97
2024-05-09T09:53:05.108Z,101975.22
2024-05-09T09:55:53.058Z,101971.69
2024-05-09T09:58:40.435Z,101977.00
2024-05-09T10:01:27.752Z,101951.56
2024-05-09T10:04:15.203Z,101952.25
2024-05-09T10:07:06.814Z,101949.56
2024-05-09T10:09:55.691Z,101953.03
2024-05-09T10:12:42.903Z,101800.34
2024-05-09T10:15:30.431Z,101936.38
2024-05-09T10:18:29.424Z,101937.19
2024-05-09T10:21:18.463Z,101927.50
2024-05-09T10:24:17.601Z,101931.00
2024-05-09T10:27:12.138Z,101921.28
2024-05-09T10:29:59.277Z,101927.50
2024-05-09T10:32:50.613Z,101916.03
2024-05-09T10:35:37.950Z,101902.88
2024-05-09T10:38:28.633Z,101902.00
2024-05-09T10:41:20.194Z,101899.38
2024-05-09T10:44:08.010Z,101918.75
2024-05-09T10:46:55.673Z,101899.44
2024-05-09T10:49:42.815Z,101881.94
2024-05-09T10:52:30.077Z,101903.84
2024-05-09T10:55:17.322Z,101887.97
2024-05-09T10:58:04.651Z,101888.88
2024-05-09T11:00:52.208Z,101894.19
2024-05-09T11:03:39.975Z,101898.59
2024-05-09T11:06:28.873Z,101871.31
2024-05-09T11:09:17.385Z,101873.09
2024-05-09T11:12:05.103Z,101871.44
2024-05-09T11:14:53.015Z,101866.28
2024-05-09T11:17:40.399Z,101869.78
2024-05-09T11:20:29.938Z,101872.44
2024-05-09T11:23:17.941Z,101854.84
2024-05-09T11:26:09.460Z,101844.34
2024-05-09T11:28:56.661Z,101846.94
2024-05-09T11:31:44.217Z,101838.97
2024-05-09T11:34:31.634Z,101823.25
2024-05-09T11:37:19.307Z,101827.63
2024-05-09T11:40:11.653Z,101835.53
2024-05-09T11:43:03.940Z,101827.56
2024-05-09T11:45:51.230Z,101817.09
2024-05-09T11:48:38.491Z,101814.34
2024-05-09T11:51:25.940Z,101824.00
2024-05-09T11:54:13.051Z,101817.81
2024-05-09T11:57:00.176Z,101815.19
2024-05-09T11:59:47.569Z,101798.59
2024-05-09T12:02:34.741Z,101803.84
2024-05-09T12:05:22.858Z,101784.59
2024-05-09T12:08:10.278Z,101792.47
2024-05-09T12:10:57.774Z,101793.38
2024-05-09T12:13:45.012Z,101786.41
2024-05-09T12:16:12.392Z,101783.91
2024-05-09T12:18:39.987Z,101783.84
2024-05-09T12:21:07.228Z,101772.41
2024-05-09T12:23:34.405Z,101771.56
2024-05-09T12:26:03.084Z,101765.41
2024-05-09T12:28:30.358Z,101754.13
2024-05-09T12:30:57.576Z,101753.22
2024-05-09T12:33:24.852Z,101749.72
2024-05-09T12:35:52.180Z,101743.56
2024-05-09T12:38:19.246Z,101731.22
2024-05-09T12:40:46.715Z,101727.78
2024-05-09T12:43:13.952Z,101743.47
2024-05-09T12:45:41.425Z,101736.47
2024-05-09T12:48:12.381Z,101732.09
2024-05-09T12:50:41.244Z,101730.34
2024-05-09T12:53:08.748Z,101721.59
2024-05-09T12:55:44.244Z,101708.44
2024-05-09T12:58:22.199Z,101666.53
2024-05-09T13:00:51.664Z,101713.59
2024-05-09T13:03:19.253Z,101705.69
2024-05-09T13:05:46.798Z,101689.09
2024-05-09T13:08:14.264Z,101702.13
2024-05-09T13:10:41.990Z,101693.34
2024-05-09T13:13:10.374Z,101680.16
2024-05-09T13:15:38.095Z,101691.63
2024-05-09T13:18:06.413Z,101682.78
2024-05-09T13:20:35.704Z,101669.66
2024-05-09T13:23:04.842Z,101659.28
2024-05-09T13:25:34.723Z,101666.91
2024-05-09T13:28:03.199Z,101667.84
2024-05-09T13:30:39.021Z,101664.38
2024-05-09T13:33:12.886Z,101632.09
2024-05-09T13:35:47.573Z,101654.72
2024-05-09T13:38:21.953Z,101649.44
2024-05-09T13:40:50.131Z,101645.91
2024-05-09T13:43:18.529Z,101604.09
2024-05-09T13:45:46.221Z,101649.44
2024-05-09T13:48:13.642Z,101630.13
2024-05-09T13:50:41.139Z,101626.50
2024-05-09T13:53:09.061Z,101626.47
2024-05-09T13:55:38.815Z,101597.66
2024-05-09T13:58:07.422Z,101617.69
2024-05-09T14:03:05.431Z,101612.47
2024-05-09T14:05:32.820Z,101594.13
2024-05-09T14:08:00.974Z,101591.53
2024-05-09T14:10:31.189Z,101595.72
2024-05-09T14:13:00.209Z,101594.84
2024-05-09T14:15:27.733Z,101599.25
2024-05-09T14:17:55.642Z,101596.66
2024-05-09T14:20:30.757Z,101608.16
2024-05-09T14:23:00.995Z,101589.00
2024-05-09T14:25:29.617Z,101591.56
2024-05-09T14:27:59.958Z,101584.66
2024-05-09T14:30:34.841Z,101570.72
2024-05-09T14:33:06.652Z,101532.47
2024-05-09T14:35:34.740Z,101586.41
2024-05-09T14:38:02.487Z,101589.03
2024-05-09T14:40:40.211Z,101577.63
2024-05-09T14:43:12.619Z,101569.75
2024-05-09T14:45:40.829Z,101574.13
2024-05-09T14:48:09.142Z,101556.69
2024-05-09T14:50:39.247Z,101547.88
2024-05-09T14:53:09.920Z,101564.56
2024-05-09T14:55:39.298Z,101557.59
2024-05-09T14:58:07.646Z,101555.03
2024-05-09T15:00:42.993Z,101560.38
2024-05-09T15:03:13.621Z,101549.88
2024-05-09T15:05:41.084Z,101546.34
2024-05-09T15:08:09.062Z,101540.25
2024-05-09T15:10:37.304Z,101541.19
2024-05-09T15:13:07.294Z,101487.31
2024-05-09T15:15:36.273Z,101532.47
2024-05-09T15:18:07.278Z,101524.56
2024-05-09T15:20:37.014Z,101520.16
2024-05-09T15:23:06.396Z,101519.25
2024-05-09T15:25:36.312Z,101511.28
2024-05-09T15:28:05.118Z,101490.25
2024-05-09T15:30:34.009Z,101502.53
2024-05-09T15:33:06.570Z,101438.16
2024-05-09T15:35:34.998Z,101491.09
2024-05-09T15:38:03.564Z,101484.06
2024-05-09T15:40:38.245Z,101468.41
2024-05-09T15:43:08.868Z,101476.19
2024-05-09T15:45:37.375Z,101471.75
2024-05-09T15:48:05.747Z,101462.16
2024-05-09T15:50:38.744Z,101462.06
2024-05-09T15:53:09.847Z,101457.63
2024-05-09T15:55:38.016Z,101449.69
2024-05-09T15:58:06.558Z,101394.88
2024-05-09T16:00:39.003Z,101448.75
2024-05-09T16:03:14.153Z,101439.09
2024-05-09T16:05:48.314Z,101428.50
2024-05-09T16:08:16.490Z,101431.94
2024-05-09T16:10:46.222Z,101430.16
2024-05-09T16:13:14.697Z,101434.53
2024-05-09T16:15:43.917Z,101430.16
2024-05-09T16:18:12.040Z,101425.69
2024-05-09T16:20:41.641Z,101419.53
2024-05-09T16:23:11.076Z,101406.44
2024-05-09T16:25:39.555Z,101402.81
2024-05-09T16:28:10.008Z,101404.59
2024-05-09T16:30:41.405Z,101406.34
2024-05-09T16:33:09.591Z,101401.94
2024-05-09T16:35:37.766Z,101388.72
2024-05-09T16:38:06.193Z,101385.19
2024-05-09T16:40:38.381Z,101390.44
2024-05-09T16:43:11.883Z,101380.84
2024-05-09T16:45:41.458Z,101378.09
2024-05-09T16:48:09.453Z,101377.13
2024-05-09T16:50:37.010Z,101377.09
2024-05-09T16:53:05.670Z,101367.47
2024-05-09T16:55:34.009Z,101377.94
2024-05-09T16:58:02.163Z,101366.47
2024-05-09T17:00:39.326Z,101359.50
2024-05-09T17:03:12.843Z,101360.34
2024-05-09T17:05:41.520Z,101358.53
2024-05-09T17:08:09.146Z,101289.00
2024-05-09T17:10:36.825Z,101343.56
2024-05-09T17:13:06.764Z,101340.00
2024-05-09T17:15:36.630Z,101346.13
2024-05-09T17:18:05.500Z,101334.81
2024-05-09T17:20:36.007Z,101339.09
2024-05-09T17:23:06.006Z,101326.03
2024-05-09T17:25:34.344Z,101328.56
2024-05-09T17:28:10.109Z,101323.28
2024-05-09T17:30:39.738Z,101324.13
2024-05-09T17:33:10.221Z,101289.31
2024-05-09T17:35:38.465Z,101311.88
2024-05-09T17:38:06.518Z,101305.88
2024-05-09T17:40:36.746Z,101317.16
2024-05-09T17:43:06.931Z,101313.59
2024-05-09T17:45:37.805Z,101283.28
2024-05-09T17:48:05.926Z,101301.47
2024-05-09T17:50:36.097Z,101302.16
2024-05-09T17:53:08.812Z,101306.50
2024-05-09T17:55:36.666Z,101315.28
2024-05-09T17:58:04.861Z,101309.09
2024-05-09T18:00:39.281Z,101311.75
2024-05-09T18:03:11.924Z,101306.47
2024-05-09T18:05:40.636Z,101312.63
2024-05-09T18:08:08.629Z,101302.06
2024-05-09T18:10:38.790Z,101299.41
2024-05-09T18:13:11.899Z,101294.91
2024-05-09T18:15:40.303Z,101290.47
2024-05-09T18:18:09.308Z,101279.88
2024-05-09T18:20:42.938Z,101285.09
2024-05-09T18:23:15.790Z,101264.19
2024-05-09T18:25:44.687Z,101277.09
2024-05-09T18:28:11.998Z,101271.78
2024-05-09T18:30:40.227Z,101261.22
2024-05-09T18:33:10.659Z,101262.91
2024-05-09T18:35:38.623Z,101254.22
2024-05-09T18:38:06.000Z,101262.03
2024-05-09T18:40:36.463Z,101255.88
2024-05-09T18:43:08.131Z,101251.53
2024-05-09T18:45:37.869Z,101248.91
2024-05-09T18:48:07.209Z,101252.34
2024-05-09T18:50:38.788Z,101250.59
2024-05-09T18:53:10.427Z,101228.72
2024-05-09T18:55:38.370Z,101242.63
2024-05-09T18:58:07.169Z,101234.75
2024-05-09T19:00:37.940Z,101233.88
2024-05-09T19:03:12.854Z,101234.75
2024-05-09T19:05:43.847Z,101184.28
2024-05-09T19:08:12.497Z,101226.78
2024-05-09T19:10:40.365Z,101232.97
2024-05-09T19:13:11.917Z,101231.97
2024-05-09T19:15:41.394Z,101235.53
2024-05-09T19:18:10.310Z,101235.50
2024-05-09T19:20:38.267Z,101232.81
2024-05-09T19:23:06.947Z,101228.38
2024-05-09T19:25:36.403Z,101227.50
2024-05-09T19:28:04.981Z,101220.44
2024-05-09T19:30:39.335Z,101223.06
2024-05-09T19:33:11.875Z,101228.34
2024-05-09T19:35:40.272Z,101216.91
2024-05-09T19:38:07.564Z,101174.56
2024-05-09T19:40:35.635Z,101216.91
2024-05-09T19:43:05.115Z,101219.56
2024-05-09T19:45:35.271Z,101226.56
2024-05-09T19:48:04.508Z,101222.22
2024-05-09T19:50:40.195Z,101193.75
2024-05-09T19:53:11.561Z,101233.63
2024-05-09T19:55:39.504Z,101226.78
2024-05-09T19:58:07.833Z,101238.06
2024-05-09T20:00:38.549Z,101238.13
2024-05-09T20:03:08.430Z,101247.88
2024-05-09T20:05:36.955Z,101247.00
2024-05-09T20:08:05.146Z,101245.25
2024-05-09T20:10:34.633Z,101244.38
2024-05-09T20:13:04.934Z,101247.94
2024-05-09T20:15:34.921Z,101240.03
2024-05-09T20:18:03.169Z,101247.94
2024-05-09T20:20:37.492Z,101241.16
2024-05-09T20:23:09.376Z,101250.63
2024-05-09T20:25:36.848Z,101252.44
2024-05-09T20:28:04.899Z,101243.66
2024-05-09T20:30:36.329Z,101245.38
2024-05-09T20:33:07.196Z,101250.66
2024-05-09T20:35:35.917Z,101200.47
2024-05-09T20:38:04.006Z,101255.88
2024-05-09T20:40:35.794Z,101253.22
2024-05-09T20:43:10.138Z,101268.16
2024-05-09T20:45:38.511Z,101252.31
2024-05-09T20:48:07.062Z,101245.50
2024-05-09T20:50:39.365Z,101253.19
2024-05-09T20:53:10.839Z,101251.47
2024-05-09T20:55:38.740Z,101249.72
2024-05-09T20:58:06.072Z,101254.09
2024-05-09T21:00:40.016Z,101244.47
2024-05-09T21:03:11.644Z,101256.72
2024-05-09T21:05:39.844Z,101236.63
2024-05-09T21:08:07.784Z,101258.38
2024-05-09T21:10:36.548Z,101200.31
2024-05-09T21:13:04.749Z,101253.91
2024-05-09T21:15:32.404Z,101255.63
2024-05-09T21:17:59.754Z,101259.09
2024-05-09T21:22:58.378Z,101228.75
2024-05-09T21:25:25.718Z,101259.91
2024-05-09T21:27:53.399Z,101253.75
2024-05-09T21:30:31.869Z,101256.25
2024-05-09T21:33:12.980Z,101261.53
2024-05-09T21:35:42.964Z,101250.06
2024-05-09T21:38:10.607Z,101257.97
2024-05-09T21:40:38.594Z,101253.56
2024-05-09T21:43:08.967Z,101255.34
2024-05-09T21:45:37.069Z,101254.50
2024-05-09T21:48:05.750Z,101255.34
2024-05-09T21:50:39.612Z,101249.22
2024-05-09T21:53:09.874Z,101261.53
2024-05-09T21:55:37.204Z,101265.97
2024-05-09T21:58:04.651Z,101257.22
2024-05-09T22:00:36.685Z,101256.25
2024-05-09T22:03:10.800Z,101266.88
2024-05-09T22:05:42.218Z,101269.53
2024-05-09T22:08:09.975Z,101260.78
2024-05-09T22:10:37.505Z,101273.16
2024-05-09T22:13:06.511Z,101267.91
2024-05-09T22:15:39.843Z,101247.91
2024-05-09T22:18:09.301Z,101262.63
2024-05-09T22:20:44.495Z,101267.06
2024-05-09T22:23:13.387Z,101269.72
2024-05-09T22:25:40.809Z,101269.78
2024-05-09T22:28:08.261Z,101268.03
2024-05-09T22:30:38.939Z,101270.66
2024-05-09T22:33:09.275Z,101269.91
2024-05-09T22:35:38.077Z,101272.47
2024-05-09T22:38:05.471Z,101275.94
2024-05-09T22:40:42.460Z,101267.16
2024-05-09T22:43:23.671Z,101250.66
2024-05-09T22:45:55.885Z,101269.81
2024-05-09T22:48:25.019Z,101272.59
2024-05-09T22:50:53.683Z,101289.16
2024-05-09T22:53:25.271Z,101286.50
2024-05-09T22:55:52.847Z,101288.28
2024-05-09T22:58:20.906Z,101295.28
2024-05-09T23:00:48.344Z,101292.59
2024-05-09T23:03:16.756Z,101292.59
2024-05-09T23:05:44.159Z,101301.41
2024-05-09T23:08:11.275Z,101303.13
2024-05-09T23:10:38.716Z,101306.63
2024-05-09T23:13:07.801Z,101265.09
2024-05-09T23:15:37.035Z,101283.47
2024-05-09T23:18:04.929Z,101306.69
2024-05-09T23:20:37.508Z,101319.97
2024-05-09T23:23:07.675Z,101323.47
2024-05-09T23:25:35.312Z,101331.44
2024-05-09T23:28:03.130Z,101336.81
2024-05-09T23:30:37.425Z,101311.69
2024-05-09T23:33:08.370Z,101336.09
2024-05-09T23:35:36.051Z,101337.00
2024-05-09T23:38:03.406Z,101342.31
2024-05-09T23:40:38.162Z,101342.34
2024-05-09T23:43:09.225Z,101343.25
2024-05-09T23:45:36.943Z,101345.88
2024-05-09T23:48:04.966Z,101346.75
2024-05-09T23:50:36.566Z,101347.63
2024-05-09T23:53:08.004Z,101348.50
2024-05-09T23:55:36.740Z,101361.66
2024-05-09T23:58:04.240Z,101356.38
